createdAt,value
2018-12-18T00:01:06.876Z,80.30
2018-12-18T00:03:39.439Z,81.27
2018-12-18T00:06:11.833Z,80.59
2018-12-18T00:08:41.378Z,80.84
2018-12-18T00:11:11.191Z,80.77
2018-12-18T00:13:40.866Z,81.03
2018-12-18T00:16:10.075Z,81.93
2018-12-18T00:18:39.618Z,81.70
2018-12-18T00:21:09.255Z,81.78
2018-12-18T00:23:38.775Z,81.16
2018-12-18T00:26:08.355Z,80.82
2018-12-18T00:28:38.128Z,80.86
2018-12-18T00:31:07.722Z,81.21
2018-12-18T00:33:37.383Z,81.43
2018-12-18T00:36:06.893Z,81.01
2018-12-18T00:38:36.373Z,81.22
2018-12-18T00:41:06.811Z,82.41
2018-12-18T00:43:36.173Z,81.85
2018-12-18T00:46:05.827Z,80.77
2018-12-18T00:48:35.460Z,80.73
2018-12-18T00:51:05.018Z,80.40
2018-12-18T00:53:34.333Z,80.79
2018-12-18T00:56:03.988Z,79.50
2018-12-18T00:58:33.454Z,81.17
2018-12-18T01:01:02.877Z,80.52
2018-12-18T01:03:32.614Z,79.69
2018-12-18T01:06:02.134Z,80.95
2018-12-18T01:08:31.638Z,80.64
2018-12-18T01:11:01.272Z,80.60
2018-12-18T01:13:30.775Z,81.46
2018-12-18T01:16:00.542Z,80.20
2018-12-18T01:18:29.984Z,80.44
2018-12-18T01:20:59.298Z,80.49
2018-12-18T01:23:28.904Z,80.90
2018-12-18T01:25:58.328Z,79.48
2018-12-18T01:28:27.912Z,80.77
2018-12-18T01:30:57.789Z,80.22
2018-12-18T01:33:27.498Z,81.78
2018-12-18T01:35:56.983Z,81.48
2018-12-18T01:38:26.662Z,80.83
2018-12-18T01:40:55.992Z,80.83
2018-12-18T01:43:25.991Z,81.68
2018-12-18T01:45:55.826Z,82.51
2018-12-18T01:48:25.584Z,83.01
2018-12-18T01:50:55.390Z,82.57
2018-12-18T01:53:24.739Z,83.28
2018-12-18T01:55:54.124Z,84.36
2018-12-18T01:58:23.912Z,84.96
2018-12-18T02:00:53.473Z,84.75
2018-12-18T02:03:22.828Z,84.26
2018-12-18T02:05:52.712Z,84.60
2018-12-18T02:08:22.060Z,83.78
2018-12-18T02:10:51.476Z,84.24
2018-12-18T02:13:20.804Z,84.51
2018-12-18T02:15:50.855Z,83.83
2018-12-18T02:18:20.367Z,84.11
2018-12-18T02:20:49.966Z,84.45
2018-12-18T02:23:19.882Z,83.63
2018-12-18T02:25:49.316Z,83.55
2018-12-18T02:28:18.945Z,82.53
2018-12-18T02:30:48.678Z,83.13
2018-12-18T02:33:18.760Z,82.94
2018-12-18T02:35:48.299Z,82.81
2018-12-18T02:38:18.048Z,83.04
2018-12-18T02:40:47.599Z,83.48
2018-12-18T02:43:17.227Z,83.82
2018-12-18T02:45:47.107Z,83.16
2018-12-18T02:48:17.232Z,83.71
2018-12-18T02:50:46.938Z,83.52
2018-12-18T02:53:16.212Z,82.65
2018-12-18T02:55:45.622Z,83.36
2018-12-18T02:58:15.067Z,82.49
2018-12-18T03:00:44.606Z,82.24
2018-12-18T03:03:14.293Z,82.49
2018-12-18T03:05:44.071Z,82.98
2018-12-18T03:08:13.850Z,83.15
2018-12-18T03:10:43.283Z,83.25
2018-12-18T03:13:12.615Z,83.16
2018-12-18T03:15:42.438Z,83.29
2018-12-18T03:18:12.841Z,83.01
2018-12-18T03:20:42.815Z,83.36
2018-12-18T03:23:12.166Z,82.98
2018-12-18T03:25:41.425Z,82.95
2018-12-18T03:28:11.070Z,82.96
2018-12-18T03:30:40.341Z,83.29
2018-12-18T03:33:10.001Z,82.51
2018-12-18T03:35:39.731Z,82.97
2018-12-18T03:38:09.505Z,82.59
2018-12-18T03:40:39.059Z,81.32
2018-12-18T03:43:08.541Z,82.06
2018-12-18T03:45:38.173Z,82.90
2018-12-18T03:48:07.457Z,82.18
2018-12-18T03:50:36.910Z,83.00
2018-12-18T03:53:06.530Z,82.72
2018-12-18T03:55:36.170Z,82.58
2018-12-18T03:58:05.498Z,83.12
2018-12-18T04:00:35.317Z,82.85
2018-12-18T04:03:04.745Z,82.68
2018-12-18T04:05:34.110Z,82.98
2018-12-18T04:08:10.132Z,82.12
2018-12-18T04:10:39.762Z,82.48
2018-12-18T04:13:09.396Z,82.60
2018-12-18T04:15:39.001Z,82.42
2018-12-18T04:18:08.248Z,83.54
2018-12-18T04:20:37.898Z,83.36
2018-12-18T04:23:07.285Z,83.13
2018-12-18T04:25:37.164Z,82.55
2018-12-18T04:28:06.706Z,82.93
2018-12-18T04:30:36.031Z,82.54
2018-12-18T04:33:05.748Z,82.52
2018-12-18T04:35:37.266Z,82.97
2018-12-18T04:38:06.874Z,83.02
2018-12-18T04:40:36.374Z,82.32
2018-12-18T04:43:05.777Z,81.38
2018-12-18T04:45:35.283Z,81.32
2018-12-18T04:48:04.768Z,81.70
2018-12-18T04:50:34.540Z,81.27
2018-12-18T04:53:04.115Z,82.22
2018-12-18T04:55:33.392Z,82.35
2018-12-18T04:58:02.708Z,82.20
2018-12-18T05:00:32.111Z,81.75
2018-12-18T05:03:01.405Z,81.83
2018-12-18T05:05:30.868Z,81.61
2018-12-18T05:08:00.434Z,82.44
2018-12-18T05:10:29.981Z,82.85
2018-12-18T05:12:59.586Z,83.43
2018-12-18T05:15:29.081Z,82.48
2018-12-18T05:17:58.571Z,81.94
2018-12-18T05:20:28.101Z,82.09
2018-12-18T05:22:57.567Z,81.83
2018-12-18T05:25:27.322Z,82.07
2018-12-18T05:27:56.765Z,81.91
2018-12-18T05:30:26.215Z,81.30
2018-12-18T05:32:55.841Z,81.81
2018-12-18T05:35:25.242Z,81.09
2018-12-18T05:37:55.012Z,81.73
2018-12-18T05:40:24.537Z,81.63
2018-12-18T05:42:53.870Z,82.51
2018-12-18T05:45:24.747Z,82.66
2018-12-18T05:47:54.196Z,82.52
2018-12-18T05:50:23.834Z,81.78
2018-12-18T05:52:53.405Z,81.24
2018-12-18T05:55:22.977Z,80.62
2018-12-18T05:57:52.274Z,81.27
2018-12-18T06:00:21.636Z,81.55
2018-12-18T06:02:50.997Z,81.79
2018-12-18T06:05:20.367Z,81.66
2018-12-18T06:07:50.147Z,81.58
2018-12-18T06:10:19.466Z,82.33
2018-12-18T06:12:48.824Z,82.50
2018-12-18T06:15:18.562Z,82.38
2018-12-18T06:17:48.234Z,81.44
2018-12-18T06:20:18.141Z,81.23
2018-12-18T06:22:47.620Z,81.85
2018-12-18T06:25:17.016Z,81.96
2018-12-18T06:27:46.849Z,81.34
2018-12-18T06:30:16.363Z,81.73
2018-12-18T06:32:45.685Z,81.35
2018-12-18T06:35:16.995Z,81.88
2018-12-18T06:37:46.435Z,81.81
2018-12-18T06:40:15.977Z,82.02
2018-12-18T06:42:45.527Z,81.36
2018-12-18T06:45:15.171Z,82.48
2018-12-18T06:47:44.752Z,82.80
2018-12-18T06:50:14.421Z,82.53
2018-12-18T06:52:43.660Z,81.84
2018-12-18T06:55:13.076Z,81.60
2018-12-18T06:57:42.952Z,81.90
2018-12-18T07:00:13.005Z,81.85
2018-12-18T07:02:42.459Z,81.38
2018-12-18T07:05:16.789Z,81.42
2018-12-18T07:07:43.472Z,81.34
2018-12-18T07:10:14.041Z,81.16
2018-12-18T07:12:43.292Z,80.48
2018-12-18T07:15:12.749Z,80.86
2018-12-18T07:17:42.438Z,81.29
2018-12-18T07:20:12.227Z,80.80
2018-12-18T07:22:41.726Z,81.24
2018-12-18T07:25:11.595Z,80.69
2018-12-18T07:27:41.504Z,80.69
2018-12-18T07:30:11.461Z,81.26
2018-12-18T07:32:41.632Z,81.16
2018-12-18T07:35:11.367Z,81.43
2018-12-18T07:37:40.870Z,81.34
2018-12-18T07:40:10.822Z,81.81
2018-12-18T07:42:40.330Z,81.43
2018-12-18T07:45:09.757Z,80.55
2018-12-18T07:47:39.123Z,80.74
2018-12-18T07:50:09.570Z,79.90
2018-12-18T07:52:39.332Z,80.04
2018-12-18T07:55:08.628Z,80.29
2018-12-18T07:57:38.185Z,80.43
2018-12-18T08:00:08.021Z,80.50
2018-12-18T08:02:37.676Z,80.37
2018-12-18T08:05:07.459Z,79.55
2018-12-18T08:07:37.009Z,79.54
2018-12-18T08:10:06.556Z,79.10
2018-12-18T08:12:35.964Z,79.83
2018-12-18T08:15:06.099Z,79.01
2018-12-18T08:17:35.564Z,79.56
2018-12-18T08:20:05.832Z,79.92
2018-12-18T08:22:35.321Z,79.70
2018-12-18T08:25:05.711Z,79.44
2018-12-18T08:27:35.577Z,79.31
2018-12-18T08:30:05.858Z,79.45
2018-12-18T08:32:35.454Z,79.33
2018-12-18T08:35:05.562Z,79.53
2018-12-18T08:37:35.218Z,78.51
2018-12-18T08:40:05.544Z,78.20
2018-12-18T08:42:36.470Z,78.87
2018-12-18T08:45:07.528Z,78.28
2018-12-18T08:47:37.628Z,78.15
2018-12-18T08:50:08.588Z,77.52
2018-12-18T08:52:38.459Z,77.17
2018-12-18T08:55:08.092Z,78.18
2018-12-18T08:57:37.591Z,77.83
2018-12-18T09:00:08.634Z,77.96
2018-12-18T09:02:38.285Z,77.94
2018-12-18T09:05:08.292Z,77.51
2018-12-18T09:07:38.345Z,76.65
2018-12-18T09:10:10.163Z,76.60
2018-12-18T09:12:39.891Z,76.54
2018-12-18T09:15:14.447Z,77.87
2018-12-18T09:17:48.279Z,77.38
2018-12-18T09:20:17.680Z,77.77
2018-12-18T09:22:47.233Z,77.48
2018-12-18T09:25:16.825Z,77.58
2018-12-18T09:27:46.034Z,78.48
2018-12-18T09:30:15.952Z,78.39
2018-12-18T09:32:45.411Z,78.47
2018-12-18T09:35:14.932Z,77.82
2018-12-18T09:37:44.453Z,77.51
2018-12-18T09:40:15.781Z,77.64
2018-12-18T09:42:50.330Z,77.10
2018-12-18T09:45:19.934Z,77.36
2018-12-18T09:47:49.237Z,77.15
2018-12-18T09:50:18.985Z,76.55
2018-12-18T09:52:48.505Z,76.57
2018-12-18T09:55:18.179Z,75.64
2018-12-18T09:57:52.815Z,75.89
2018-12-18T10:00:22.679Z,76.84
2018-12-18T10:02:52.096Z,76.12
2018-12-18T10:05:21.851Z,76.78
2018-12-18T10:07:51.308Z,76.25
2018-12-18T10:10:20.698Z,75.59
2018-12-18T10:12:55.898Z,74.89
2018-12-18T10:15:26.038Z,75.84
2018-12-18T10:17:55.487Z,72.84
2018-12-18T10:20:25.239Z,72.52
2018-12-18T10:22:54.475Z,72.44
2018-12-18T10:25:23.687Z,73.34
2018-12-18T10:27:53.201Z,72.47
2018-12-18T10:30:22.579Z,72.41
2018-12-18T10:32:52.242Z,71.81
2018-12-18T10:35:22.174Z,71.84
2018-12-18T10:37:51.756Z,72.23
2018-12-18T10:40:21.481Z,74.20
2018-12-18T10:42:50.861Z,73.66
2018-12-18T10:45:21.575Z,74.71
2018-12-18T10:47:51.119Z,74.19
2018-12-18T10:50:20.442Z,74.60
2018-12-18T10:52:49.673Z,74.00
2018-12-18T10:55:19.291Z,74.25
2018-12-18T10:57:48.604Z,75.00
2018-12-18T11:00:23.033Z,74.13
2018-12-18T11:02:52.847Z,73.46
2018-12-18T11:05:22.339Z,73.76
2018-12-18T11:07:51.950Z,73.36
2018-12-18T11:10:21.495Z,74.23
2018-12-18T11:13:21.591Z,74.41
2018-12-18T11:15:51.076Z,74.26
2018-12-18T11:18:20.885Z,73.38
2018-12-18T11:20:50.215Z,73.26
2018-12-18T11:23:19.776Z,73.61
2018-12-18T11:25:49.199Z,73.69
2018-12-18T11:28:18.783Z,74.13
2018-12-18T11:30:48.475Z,74.29
2018-12-18T11:33:18.147Z,74.16
2018-12-18T11:35:47.928Z,73.13
2018-12-18T11:38:17.628Z,73.79
2018-12-18T11:40:47.032Z,73.17
2018-12-18T11:43:16.809Z,72.73
2018-12-18T11:45:46.336Z,73.64
2018-12-18T11:48:15.874Z,73.40
2018-12-18T11:50:45.272Z,73.21
2018-12-18T11:53:14.738Z,73.27
2018-12-18T11:55:44.191Z,72.86
2018-12-18T11:58:13.943Z,72.56
2018-12-18T12:00:43.864Z,73.67
2018-12-18T12:03:13.040Z,73.26
2018-12-18T12:05:44.811Z,73.07
2018-12-18T12:08:14.343Z,73.71
2018-12-18T12:10:44.135Z,73.91
2018-12-18T12:13:13.511Z,74.29
2018-12-18T12:15:43.001Z,73.46
2018-12-18T12:18:12.543Z,73.43
2018-12-18T12:20:41.940Z,74.26
2018-12-18T12:23:11.478Z,73.08
2018-12-18T12:25:41.161Z,74.02
2018-12-18T12:28:11.059Z,74.01
2018-12-18T12:30:40.409Z,73.26
2018-12-18T12:33:09.978Z,72.65
2018-12-18T12:35:39.570Z,72.66
2018-12-18T12:38:09.424Z,72.42
2018-12-18T12:40:39.030Z,73.04
2018-12-18T12:43:08.856Z,72.52
2018-12-18T12:45:38.429Z,71.96
2018-12-18T12:48:11.909Z,72.16
2018-12-18T12:50:41.224Z,72.55
2018-12-18T12:53:11.353Z,71.38
2018-12-18T12:55:41.052Z,72.10
2018-12-18T12:58:10.357Z,73.04
2018-12-18T13:00:39.952Z,73.56
2018-12-18T13:03:10.392Z,73.94
2018-12-18T13:05:39.762Z,73.53
2018-12-18T13:08:09.236Z,73.43
2018-12-18T13:10:38.811Z,72.72
2018-12-18T13:13:08.598Z,73.82
2018-12-18T13:15:38.143Z,73.69
2018-12-18T13:18:07.601Z,73.30
2018-12-18T13:20:37.113Z,72.84
2018-12-18T13:23:06.692Z,73.17
2018-12-18T13:25:42.867Z,72.92
2018-12-18T13:28:12.796Z,74.03
2018-12-18T13:30:42.060Z,73.72
2018-12-18T13:33:12.724Z,73.37
2018-12-18T13:35:47.134Z,72.60
2018-12-18T13:38:20.399Z,72.51
2018-12-18T13:40:50.776Z,71.99
2018-12-18T13:43:20.813Z,72.13
2018-12-18T13:45:50.440Z,73.66
2018-12-18T13:48:21.320Z,72.93
2018-12-18T13:50:54.387Z,72.86
2018-12-18T13:53:24.175Z,72.36
2018-12-18T13:55:55.587Z,71.95
2018-12-18T13:58:25.969Z,71.69
2018-12-18T14:00:55.500Z,72.17
2018-12-18T14:03:25.517Z,71.55
2018-12-18T14:05:55.147Z,72.69
2018-12-18T14:08:24.873Z,73.33
2018-12-18T14:10:54.678Z,73.26
2018-12-18T14:13:23.979Z,71.81
2018-12-18T14:15:55.230Z,73.00
2018-12-18T14:18:26.429Z,72.30
2018-12-18T14:20:59.891Z,71.82
2018-12-18T14:23:31.681Z,72.03
2018-12-18T14:26:02.885Z,71.83
2018-12-18T14:28:33.209Z,71.85
2018-12-18T14:31:02.488Z,71.74
2018-12-18T14:33:32.030Z,72.15
2018-12-18T14:36:01.327Z,71.82
2018-12-18T14:38:30.851Z,72.48
2018-12-18T14:41:00.467Z,72.51
2018-12-18T14:43:29.829Z,72.31
2018-12-18T14:45:59.422Z,73.48
2018-12-18T14:48:28.880Z,73.19
2018-12-18T14:50:58.254Z,73.05
2018-12-18T14:53:27.768Z,73.27
2018-12-18T14:55:57.512Z,72.38
2018-12-18T14:58:26.943Z,74.07
2018-12-18T15:00:58.004Z,73.85
2018-12-18T15:03:27.336Z,73.62
2018-12-18T15:05:56.730Z,73.48
2018-12-18T15:08:26.466Z,72.94
2018-12-18T15:10:57.221Z,73.50
2018-12-18T15:13:28.716Z,72.89
2018-12-18T15:15:58.784Z,72.98
2018-12-18T15:18:27.999Z,72.74
2018-12-18T15:20:57.892Z,72.75
2018-12-18T15:23:27.113Z,73.32
2018-12-18T15:25:56.776Z,73.50
2018-12-18T15:28:26.591Z,72.73
2018-12-18T15:30:56.010Z,73.45
2018-12-18T15:33:25.574Z,74.40
2018-12-18T15:35:55.352Z,73.51
2018-12-18T15:38:24.566Z,73.66
2018-12-18T15:40:54.056Z,74.60
2018-12-18T15:43:23.472Z,74.10
2018-12-18T15:45:52.901Z,74.05
2018-12-18T15:48:22.651Z,73.92
2018-12-18T15:50:52.328Z,74.22
2018-12-18T15:53:22.089Z,74.47
2018-12-18T15:55:51.640Z,74.14
2018-12-18T15:58:21.041Z,74.57
2018-12-18T16:00:50.507Z,73.41
2018-12-18T16:03:19.880Z,74.24
2018-12-18T16:05:49.435Z,74.92
2018-12-18T16:08:19.213Z,75.03
2018-12-18T16:10:48.664Z,74.56
2018-12-18T16:13:19.620Z,74.88
2018-12-18T16:15:49.564Z,74.56
2018-12-18T16:18:19.162Z,74.69
2018-12-18T16:20:48.650Z,74.55
2018-12-18T16:23:18.358Z,74.29
2018-12-18T16:25:47.837Z,74.58
2018-12-18T16:28:17.394Z,74.96
2018-12-18T16:30:46.762Z,74.92
2018-12-18T16:33:16.169Z,75.34
2018-12-18T16:35:46.406Z,74.64
2018-12-18T16:38:16.115Z,74.41
2018-12-18T16:40:45.539Z,75.09
2018-12-18T16:43:15.363Z,74.73
2018-12-18T16:45:44.878Z,74.72
2018-12-18T16:48:15.390Z,74.71
2018-12-18T16:50:45.532Z,74.91
2018-12-18T16:53:14.806Z,75.15
2018-12-18T16:55:44.115Z,74.69
2018-12-18T16:58:13.400Z,75.26
2018-12-18T17:00:42.609Z,75.51
2018-12-18T17:03:11.798Z,76.08
2018-12-18T17:05:41.532Z,75.91
2018-12-18T17:08:11.329Z,75.72
2018-12-18T17:10:40.883Z,75.72
2018-12-18T17:13:10.560Z,75.95
2018-12-18T17:15:40.160Z,76.22
2018-12-18T17:18:09.370Z,76.19
2018-12-18T17:20:39.300Z,76.24
2018-12-18T17:23:08.795Z,75.49
2018-12-18T17:25:38.239Z,76.88
2018-12-18T17:28:07.787Z,75.80
2018-12-18T17:30:37.142Z,75.80
2018-12-18T17:33:06.597Z,74.84
2018-12-18T17:35:37.865Z,75.27
2018-12-18T17:38:07.689Z,76.22
2018-12-18T17:40:37.375Z,75.58
2018-12-18T17:43:06.976Z,76.69
2018-12-18T17:45:36.456Z,77.39
2018-12-18T17:48:07.562Z,76.68
2018-12-18T17:50:37.235Z,77.27
2018-12-18T17:53:06.735Z,76.30
2018-12-18T17:55:36.489Z,77.75
2018-12-18T17:58:05.753Z,77.45
2018-12-18T18:00:35.342Z,76.67
2018-12-18T18:03:04.875Z,77.14
2018-12-18T18:05:34.563Z,76.63
2018-12-18T18:08:04.140Z,76.59
2018-12-18T18:10:33.614Z,76.60
2018-12-18T18:13:03.824Z,76.19
2018-12-18T18:15:33.788Z,76.75
2018-12-18T18:18:03.257Z,76.03
2018-12-18T18:20:32.726Z,76.41
2018-12-18T18:23:02.465Z,76.47
2018-12-18T18:25:32.161Z,76.77
2018-12-18T18:28:01.641Z,76.04
2018-12-18T18:30:31.066Z,77.29
2018-12-18T18:33:00.449Z,77.42
2018-12-18T18:35:31.373Z,77.40
2018-12-18T18:38:01.131Z,76.86
2018-12-18T18:40:30.501Z,77.44
2018-12-18T18:43:00.169Z,76.75
2018-12-18T18:45:29.740Z,77.27
2018-12-18T18:47:59.771Z,76.80
2018-12-18T18:50:29.176Z,76.19
2018-12-18T18:52:58.671Z,76.76
2018-12-18T18:55:28.195Z,76.99
2018-12-18T18:57:57.517Z,77.16
2018-12-18T19:00:26.746Z,77.12
2018-12-18T19:02:56.499Z,77.09
2018-12-18T19:05:25.902Z,76.96
2018-12-18T19:07:56.643Z,77.18
2018-12-18T19:10:26.234Z,77.37
2018-12-18T19:13:00.274Z,77.15
2018-12-18T19:15:29.940Z,77.04
2018-12-18T19:18:00.604Z,77.50
2018-12-18T19:20:29.800Z,78.05
2018-12-18T19:22:59.277Z,77.98
2018-12-18T19:25:29.037Z,78.66
2018-12-18T19:27:58.346Z,78.43
2018-12-18T19:30:27.622Z,78.04
2018-12-18T19:32:57.323Z,79.18
2018-12-18T19:35:26.779Z,79.47
2018-12-18T19:38:03.041Z,78.87
2018-12-18T19:40:27.885Z,77.49
2018-12-18T19:42:58.632Z,78.13
2018-12-18T19:45:28.071Z,78.21
2018-12-18T19:47:57.862Z,78.65
2018-12-18T19:50:28.205Z,79.20
2018-12-18T19:52:57.404Z,78.32
2018-12-18T19:55:26.677Z,78.73
2018-12-18T19:57:56.770Z,78.36
2018-12-18T20:00:26.297Z,77.71
2018-12-18T20:02:55.914Z,77.68
2018-12-18T20:05:25.479Z,77.08
2018-12-18T20:07:54.881Z,77.46
2018-12-18T20:10:24.388Z,77.16
2018-12-18T20:12:54.144Z,76.65
2018-12-18T20:15:23.764Z,77.16
2018-12-18T20:17:53.327Z,77.37
2018-12-18T20:20:22.740Z,76.54
2018-12-18T20:22:52.000Z,76.86
2018-12-18T20:25:21.515Z,76.17
2018-12-18T20:27:50.734Z,77.20
2018-12-18T20:30:20.011Z,76.17
2018-12-18T20:32:50.045Z,75.69
2018-12-18T20:35:19.593Z,75.70
2018-12-18T20:37:49.115Z,76.01
2018-12-18T20:40:18.464Z,75.71
2018-12-18T20:42:48.122Z,76.28
2018-12-18T20:45:17.633Z,75.93
2018-12-18T20:47:47.636Z,76.30
2018-12-18T20:50:24.769Z,77.46
2018-12-18T20:52:54.948Z,77.34
2018-12-18T20:55:25.195Z,76.69
2018-12-18T20:57:57.293Z,76.94
2018-12-18T21:00:29.792Z,75.79
2018-12-18T21:02:59.786Z,76.31
2018-12-18T21:05:30.233Z,76.07
2018-12-18T21:07:59.929Z,75.77
2018-12-18T21:10:29.687Z,76.31
2018-12-18T21:13:04.451Z,76.66
2018-12-18T21:15:34.221Z,76.56
2018-12-18T21:18:03.473Z,76.56
2018-12-18T21:20:32.982Z,76.72
2018-12-18T21:23:02.308Z,76.85
2018-12-18T21:25:31.810Z,76.92
2018-12-18T21:28:01.301Z,76.37
2018-12-18T21:30:32.082Z,76.50
2018-12-18T21:33:01.561Z,77.11
2018-12-18T21:35:31.135Z,77.37
2018-12-18T21:38:00.911Z,76.79
2018-12-18T21:40:30.299Z,75.84
2018-12-18T21:43:00.107Z,76.37
2018-12-18T21:45:29.605Z,74.97
2018-12-18T21:47:59.087Z,75.26
2018-12-18T21:50:28.613Z,74.83
2018-12-18T21:52:57.988Z,75.12
2018-12-18T21:55:27.648Z,76.23
2018-12-18T21:57:57.655Z,75.72
2018-12-18T22:00:27.121Z,75.19
2018-12-18T22:02:56.877Z,75.37
2018-12-18T22:05:26.415Z,75.07
2018-12-18T22:07:55.947Z,75.72
2018-12-18T22:10:25.404Z,75.68
2018-12-18T22:12:54.788Z,74.97
2018-12-18T22:15:24.253Z,75.08
2018-12-18T22:17:53.699Z,74.91
2018-12-18T22:20:23.319Z,74.29
2018-12-18T22:22:53.018Z,75.77
2018-12-18T22:25:22.581Z,75.93
2018-12-18T22:27:52.130Z,75.54
2018-12-18T22:30:21.695Z,74.97
2018-12-18T22:32:50.982Z,74.79
2018-12-18T22:35:20.368Z,75.10
2018-12-18T22:37:50.059Z,75.09
2018-12-18T22:40:19.305Z,74.94
2018-12-18T22:42:48.608Z,75.76
2018-12-18T22:45:18.179Z,75.38
2018-12-18T22:47:47.572Z,75.75
2018-12-18T22:50:16.796Z,75.39
2018-12-18T22:52:46.376Z,75.39
2018-12-18T22:55:15.965Z,74.96
2018-12-18T22:57:45.476Z,75.42
2018-12-18T23:01:18.598Z,75.60
2018-12-18T23:03:48.013Z,75.75
2018-12-18T23:06:18.362Z,75.11
2018-12-18T23:08:50.373Z,75.21
2018-12-18T23:11:19.295Z,74.58
2018-12-18T23:13:48.992Z,75.14
2018-12-18T23:16:18.227Z,75.42
2018-12-18T23:18:47.538Z,74.57
2018-12-18T23:21:17.297Z,74.16
2018-12-18T23:23:46.521Z,74.54
2018-12-18T23:26:15.747Z,74.91
2018-12-18T23:28:45.461Z,75.24
2018-12-18T23:31:14.967Z,74.92
2018-12-18T23:33:44.631Z,74.95
2018-12-18T23:36:14.155Z,74.05
2018-12-18T23:38:43.810Z,73.99
2018-12-18T23:41:13.252Z,74.55
2018-12-18T23:43:43.833Z,74.07
2018-12-18T23:46:13.478Z,74.19
2018-12-18T23:48:42.731Z,73.87
2018-12-18T23:51:12.036Z,74.38
2018-12-18T23:53:41.802Z,74.30
2018-12-18T23:56:11.241Z,74.34
2018-12-18T23:58:40.648Z,74.31
